Time;durP1;ratioP1;P1;durP2;ratioP2;P2;SDS_P1;SDS_P2;PMS_P1;PMS_P2;Temp;Humidity;BMP_temperature;BMP_pressure;BME280_temperature;BME280_humidity;BME280_pressure;Samples;Min_cycle;Max_cycle;Signal;HPM_P1;HPM_P2
2021/12/11 00:02:29;;;;;;;;;;;2.70;99.90;;;;;;4972403;28;20009;-77
2021/12/11 00:05:07;;;;;;;;;;;-0.60;99.90;;;;;;4971793;28;19980;-78
2021/12/11 00:08:02;;;;;;;;;;;-0.60;99.90;;;;;;4976338;28;19930;-78
2021/12/11 00:11:13;;;;;;;;;;;0.10;99.90;;;;;;4952384;28;19930;-78
2021/12/11 00:14:26;;;;;;;;;;;1.60;99.90;;;;;;4951490;28;19934;-78
2021/12/11 00:17:30;;;;;;;;;;;0.10;99.90;;;;;;4956144;28;20390;-79
2021/12/11 00:20:24;;;;;;;;;;;2.40;99.90;;;;;;4970002;28;19926;-78
2021/12/11 00:23:01;;;;;;;;;;;0.90;99.90;;;;;;4935430;29;19945;-78
2021/12/11 00:29:10;;;;;;;;;;;2.20;99.90;;;;;;4969968;28;19938;-79
2021/12/11 00:31:55;;;;;;;;;;;-0.70;99.90;;;;;;4969035;28;19926;-79
2021/12/11 00:41:01;;;;;;;;;;;-0.50;99.90;;;;;;4912905;29;20400;-81
2021/12/11 00:44:01;;;;;;;;;;;-0.80;99.90;;;;;;4855496;29;20308;-78
2021/12/11 00:47:07;;;;;;;;;;;0.30;99.90;;;;;;4959567;28;19996;-78
2021/12/11 00:49:36;;;;;;;;;;;-0.70;99.90;;;;;;4950183;28;19933;-80
2021/12/11 00:52:19;;;;;;;;;;;-3.40;99.90;;;;;;4961502;28;20041;-78
2021/12/11 00:55:39;;;;;;;;;;;0.90;99.90;;;;;;5011151;28;20350;-79
2021/12/11 00:58:38;;;;;;;;;;;-1.10;99.90;;;;;;5010531;28;19930;-85
2021/12/11 01:01:23;;;;;;;;;;;-0.70;99.90;;;;;;4985200;28;20071;-86
2021/12/11 01:04:08;;;;;;;;;;;-1.10;99.90;;;;;;4955305;28;20029;-79
2021/12/11 01:06:40;;;;;;;;;;;2.30;99.90;;;;;;4938193;28;19933;-78
2021/12/11 01:09:47;;;;;;;;;;;-0.80;99.90;;;;;;4966551;28;19980;-79
2021/12/11 01:12:15;;;;;;;;;;;-0.80;99.90;;;;;;4952455;28;19948;-78
2021/12/11 01:14:56;;;;;;;;;;;-1.00;99.90;;;;;;4932361;29;19985;-79
2021/12/11 01:24:42;;;;;;;;;;;-0.90;99.90;;;;;;4865225;29;20071;-79
2021/12/11 01:27:33;;;;;;;;;;;-1.00;99.90;;;;;;4898149;29;19946;-79
2021/12/11 01:30:29;;;;;;;;;;;-1.50;99.90;;;;;;4869408;29;19965;-85
2021/12/11 01:33:22;;;;;;;;;;;-3.40;99.90;;;;;;4929378;29;20272;-79
2021/12/11 01:36:22;;;;;;;;;;;-0.80;99.90;;;;;;4903839;29;20520;-79
2021/12/11 01:39:10;;;;;;;;;;;-1.00;99.90;;;;;;4931747;29;19981;-79
2021/12/11 01:42:34;;;;;;;;;;;-1.10;99.90;;;;;;4915622;29;20406;-78
2021/12/11 01:45:26;;;;;;;;;;;-0.70;99.90;;;;;;4914822;29;20025;-79
2021/12/11 01:48:42;;;;;;;;;;;-0.80;99.90;;;;;;4938981;29;19934;-78
2021/12/11 01:54:46;;;;;;;;;;;2.20;99.90;;;;;;4950543;29;20033;-79
2021/12/11 02:03:51;;;;;;;;;;;1.70;99.90;;;;;;4949557;29;19963;-78
2021/12/11 02:10:13;;;;;;;;;;;-1.20;99.90;;;;;;4883372;29;20349;-78
2021/12/11 02:13:04;;;;;;;;;;;-1.00;99.90;;;;;;4879239;29;19934;-78
2021/12/11 02:15:49;;;;;;;;;;;-0.80;99.90;;;;;;4863872;29;19928;-78
2021/12/11 02:28:56;;;;;;;;;;;0.90;99.90;;;;;;4933188;29;19921;-78
2021/12/11 02:32:05;;;;;;;;;;;-0.50;99.90;;;;;;4935201;29;19979;-78
2021/12/11 02:42:08;;;;;;;;;;;-1.00;99.90;;;;;;4839840;29;20439;-78
2021/12/11 02:45:12;;;;;;;;;;;-0.70;99.90;;;;;;4828316;29;19931;-78
2021/12/11 02:48:22;;;;;;;;;;;0.90;99.90;;;;;;4840835;29;19960;-78
2021/12/11 02:54:49;;;;;;;;;;;-0.70;99.90;;;;;;4897000;29;20002;-78
2021/12/11 02:57:53;;;;;;;;;;;-1.10;99.90;;;;;;4897129;29;19931;-78
2021/12/11 03:00:48;;;;;;;;;;;2.60;99.90;;;;;;4896746;29;20014;-84
2021/12/11 03:07:44;;;;;;;;;;;-1.10;99.90;;;;;;4896304;29;19979;-78
2021/12/11 03:10:55;;;;;;;;;;;-1.20;99.90;;;;;;4933467;29;19926;-82
2021/12/11 03:13:50;;;;;;;;;;;1.60;99.90;;;;;;4919010;28;19933;-80
2021/12/11 03:16:58;;;;;;;;;;;-1.00;99.90;;;;;;4977364;28;19937;-78
2021/12/11 03:26:58;;;;;;;;;;;-1.10;99.90;;;;;;5012064;28;19976;-77
2021/12/11 03:30:43;;;;;;;;;;;-1.10;99.90;;;;;;5013634;28;19943;-77
2021/12/11 03:33:43;;;;;;;;;;;-1.10;99.90;;;;;;4933718;29;20021;-85
2021/12/11 03:36:24;;;;;;;;;;;-0.70;99.90;;;;;;4885630;29;19927;-78
2021/12/11 03:39:25;;;;;;;;;;;0.40;99.90;;;;;;4919708;29;20047;-78
2021/12/11 03:45:59;;;;;;;;;;;1.60;99.90;;;;;;4933362;29;20085;-78
2021/12/11 03:55:42;;;;;;;;;;;-1.10;99.90;;;;;;4988218;28;20003;-78
2021/12/11 03:58:52;;;;;;;;;;;-1.10;99.90;;;;;;5013010;28;19920;-78
2021/12/11 04:02:31;;;;;;;;;;;-1.10;99.90;;;;;;4933371;29;19981;-78
2021/12/11 04:05:46;;;;;;;;;;;-2.30;99.90;;;;;;4933140;29;19954;-79
2021/12/11 04:12:09;;;;;;;;;;;2.20;99.90;;;;;;4933289;29;20005;-78
2021/12/11 04:14:58;;;;;;;;;;;3.00;99.90;;;;;;4917308;29;20450;-85
2021/12/11 04:17:54;;;;;;;;;;;2.10;99.90;;;;;;4929191;29;20367;-86
2021/12/11 04:20:43;;;;;;;;;;;-1.10;99.90;;;;;;4904682;29;20017;-85
2021/12/11 04:23:48;;;;;;;;;;;-1.30;99.90;;;;;;4921978;29;19927;-79
2021/12/11 04:26:18;;;;;;;;;;;0.20;99.90;;;;;;4910417;28;19930;-79
2021/12/11 04:29:37;;;;;;;;;;;2.40;99.90;;;;;;4957975;28;19961;-79
2021/12/11 04:32:39;;;;;;;;;;;-1.00;99.90;;;;;;4882494;29;20011;-79
2021/12/11 04:35:36;;;;;;;;;;;-0.40;99.90;;;;;;4894064;29;19928;-79
2021/12/11 04:38:14;;;;;;;;;;;-1.70;99.90;;;;;;4893193;29;20397;-80
2021/12/11 04:41:01;;;;;;;;;;;0.20;99.90;;;;;;4894060;29;19928;-85
2021/12/11 04:44:00;;;;;;;;;;;0.60;99.90;;;;;;4930782;29;20021;-80
2021/12/11 04:47:09;;;;;;;;;;;0.40;99.90;;;;;;4948600;29;20424;-79
2021/12/11 04:50:03;;;;;;;;;;;0.60;99.90;;;;;;4917525;29;19934;-85
2021/12/11 05:05:09;;;;;;;;;;;1.40;99.90;;;;;;4926250;28;20338;-81
2021/12/11 05:10:57;;;;;;;;;;;1.30;99.90;;;;;;4909891;29;19927;-80
2021/12/11 05:14:08;;;;;;;;;;;0.50;99.90;;;;;;4846461;29;19929;-79
2021/12/11 05:16:40;;;;;;;;;;;-0.90;99.90;;;;;;4875372;29;20123;-79
2021/12/11 05:19:25;;;;;;;;;;;1.80;99.90;;;;;;4875986;29;20049;-79
2021/12/11 05:21:58;;;;;;;;;;;1.30;99.90;;;;;;4839952;29;19936;-79
2021/12/11 05:24:32;;;;;;;;;;;2.50;99.90;;;;;;4841124;29;19934;-79
2021/12/11 05:27:01;;;;;;;;;;;0.80;99.90;;;;;;4820135;29;19939;-81
2021/12/11 05:29:36;;;;;;;;;;;-1.20;99.90;;;;;;4856043;29;20355;-81
2021/12/11 05:32:04;;;;;;;;;;;-1.20;99.90;;;;;;4810789;29;20047;-78
2021/12/11 05:34:32;;;;;;;;;;;-3.00;99.90;;;;;;4825290;29;19928;-85
2021/12/11 05:37:08;;;;;;;;;;;2.50;99.90;;;;;;4842035;29;19939;-79
2021/12/11 05:39:40;;;;;;;;;;;-1.20;99.90;;;;;;4854874;29;19927;-79
2021/12/11 05:42:11;;;;;;;;;;;0.50;99.90;;;;;;4874918;29;20400;-79
2021/12/11 05:44:50;;;;;;;;;;;-1.30;99.90;;;;;;4905181;29;19930;-78
2021/12/11 05:47:20;;;;;;;;;;;-0.50;99.90;;;;;;4935027;29;19940;-79
2021/12/11 05:49:47;;;;;;;;;;;-4.40;99.90;;;;;;4918211;29;19989;-85
2021/12/11 05:52:13;;;;;;;;;;;-1.30;99.90;;;;;;4922628;28;19933;-81
2021/12/11 05:54:48;;;;;;;;;;;0.60;99.90;;;;;;4953702;28;19926;-78
2021/12/11 06:00:25;;;;;;;;;;;-1.60;99.90;;;;;;4937666;28;19926;-79
2021/12/11 06:02:58;;;;;;;;;;;1.50;99.90;;;;;;4921631;28;20531;-79
2021/12/11 06:05:41;;;;;;;;;;;-1.20;99.90;;;;;;4929889;29;19982;-79
2021/12/11 06:08:34;;;;;;;;;;;1.50;99.90;;;;;;4901402;29;19927;-80
2021/12/11 06:11:52;;;;;;;;;;;-0.20;99.90;;;;;;4960962;28;19947;-79
2021/12/11 06:14:49;;;;;;;;;;;-1.40;99.90;;;;;;4956083;28;19965;-78
2021/12/11 06:17:35;;;;;;;;;;;-1.30;99.90;;;;;;4945251;28;20498;-79
2021/12/11 06:20:37;;;;;;;;;;;-0.60;99.90;;;;;;4948658;28;20367;-82
2021/12/11 06:23:22;;;;;;;;;;;-1.50;99.90;;;;;;4950931;28;20006;-80
2021/12/11 06:25:55;;;;;;;;;;;-0.80;99.90;;;;;;4935939;28;19932;-79
2021/12/11 06:29:02;;;;;;;;;;;1.20;99.90;;;;;;4954436;28;20478;-79
2021/12/11 06:31:59;;;;;;;;;;;-1.80;99.90;;;;;;4940504;29;19934;-79
2021/12/11 06:34:44;;;;;;;;;;;-1.90;99.90;;;;;;4949979;29;20041;-82
2021/12/11 06:37:34;;;;;;;;;;;-1.60;99.90;;;;;;4985354;28;19933;-79
2021/12/11 06:40:17;;;;;;;;;;;1.10;99.90;;;;;;4974929;28;19952;-79
2021/12/11 06:43:30;;;;;;;;;;;-1.60;99.90;;;;;;4966616;28;20077;-79
2021/12/11 06:46:27;;;;;;;;;;;-1.10;99.90;;;;;;4937812;28;19984;-79
2021/12/11 06:53:24;;;;;;;;;;;-1.80;99.90;;;;;;4969355;28;19964;-79
2021/12/11 06:59:56;;;;;;;;;;;-1.80;99.90;;;;;;4969670;28;19921;-79
2021/12/11 07:03:23;;;;;;;;;;;1.10;99.90;;;;;;4945001;28;20442;-79
2021/12/11 07:06:43;;;;;;;;;;;1.40;99.90;;;;;;4933463;28;19964;-79
2021/12/11 07:13:29;;;;;;;;;;;1.90;99.90;;;;;;4896058;28;19990;-81
2021/12/11 07:23:48;;;;;;;;;;;-1.70;99.90;;;;;;4892230;29;19921;-78
2021/12/11 07:26:32;;;;;;;;;;;-1.30;99.90;;;;;;4884597;29;19927;-80
2021/12/11 07:35:39;;;;;;;;;;;-1.70;99.90;;;;;;4952217;29;19920;-79
2021/12/11 07:38:05;;;;;;;;;;;-2.00;99.90;;;;;;4962942;28;19929;-79
2021/12/11 07:40:58;;;;;;;;;;;-1.20;99.90;;;;;;4996668;28;20061;-79
2021/12/11 07:43:40;;;;;;;;;;;-1.10;99.90;;;;;;5014405;28;19945;-79
2021/12/11 07:46:13;;;;;;;;;;;-0.40;99.90;;;;;;4993107;28;19925;-78
2021/12/11 07:48:45;;;;;;;;;;;1.50;99.90;;;;;;4977764;28;20008;-81
2021/12/11 07:51:17;;;;;;;;;;;-1.50;99.90;;;;;;4993052;28;20313;-79
2021/12/11 07:54:09;;;;;;;;;;;1.20;99.90;;;;;;4958712;28;20355;-79
2021/12/11 07:56:38;;;;;;;;;;;1.70;99.90;;;;;;4925690;28;20403;-79
2021/12/11 07:59:36;;;;;;;;;;;-1.60;99.90;;;;;;4971307;28;20260;-79
2021/12/11 08:02:43;;;;;;;;;;;1.70;99.90;;;;;;4971997;28;19958;-78
2021/12/11 08:05:51;;;;;;;;;;;-1.50;99.90;;;;;;4971955;28;19928;-79
2021/12/11 08:09:32;;;;;;;;;;;-1.60;99.90;;;;;;4961585;28;20470;-79
2021/12/11 08:12:21;;;;;;;;;;;0.10;99.90;;;;;;4972000;28;20014;-79
2021/12/11 08:15:02;;;;;;;;;;;1.50;99.90;;;;;;4971047;28;19961;-79
2021/12/11 08:17:34;;;;;;;;;;;-1.20;99.90;;;;;;4958020;28;19930;-79
2021/12/11 08:20:11;;;;;;;;;;;-1.30;99.90;;;;;;4939435;28;19969;-79
2021/12/11 08:23:10;;;;;;;;;;;-0.80;99.90;;;;;;4971742;28;20004;-78
2021/12/11 08:26:16;;;;;;;;;;;0.70;99.90;;;;;;4969499;28;20042;-78
2021/12/11 08:28:58;;;;;;;;;;;-0.30;99.90;;;;;;4991138;28;19926;-80
2021/12/11 08:31:33;;;;;;;;;;;-3.40;99.90;;;;;;4940103;28;19961;-78
2021/12/11 08:34:03;;;;;;;;;;;0.00;99.90;;;;;;4960518;28;20377;-78
2021/12/11 08:36:43;;;;;;;;;;;2.60;99.90;;;;;;4960682;28;19988;-82
2021/12/11 08:39:11;;;;;;;;;;;0.40;99.90;;;;;;4972216;28;19929;-79
2021/12/11 08:42:02;;;;;;;;;;;0.60;99.90;;;;;;4976889;28;20072;-78
2021/12/11 08:44:36;;;;;;;;;;;1.70;99.90;;;;;;4959007;28;20363;-78
2021/12/11 08:47:23;;;;;;;;;;;1.00;99.90;;;;;;4972034;28;20016;-77
2021/12/11 08:49:57;;;;;;;;;;;2.10;99.90;;;;;;4954370;28;20622;-78
2021/12/11 08:52:45;;;;;;;;;;;5.00;99.90;;;;;;4957883;28;19944;-80
2021/12/11 08:55:40;;;;;;;;;;;5.40;99.90;;;;;;4923340;28;19952;-80
2021/12/11 08:58:16;;;;;;;;;;;2.20;99.90;;;;;;4970964;28;19930;-78
2021/12/11 09:01:03;;;;;;;;;;;2.50;99.90;;;;;;4923892;28;19930;-78
2021/12/11 09:03:39;;;;;;;;;;;2.80;99.90;;;;;;4971790;28;19926;-79
2021/12/11 09:06:11;;;;;;;;;;;2.80;99.90;;;;;;4955127;28;20065;-79
2021/12/11 09:08:42;;;;;;;;;;;4.00;99.90;;;;;;4939586;28;20466;-79
2021/12/11 09:11:33;;;;;;;;;;;4.90;99.90;;;;;;4970772;28;19949;-78
2021/12/11 09:14:24;;;;;;;;;;;3.40;99.90;;;;;;4968166;28;19926;-78
2021/12/11 09:17:19;;;;;;;;;;;3.30;99.90;;;;;;4956219;28;19933;-78
2021/12/11 09:20:09;;;;;;;;;;;3.80;99.90;;;;;;4940463;28;19926;-78
2021/12/11 09:23:00;;;;;;;;;;;3.60;99.90;;;;;;4995066;28;19937;-79
2021/12/11 09:25:52;;;;;;;;;;;3.90;99.90;;;;;;4978850;28;20042;-79
2021/12/11 09:28:38;;;;;;;;;;;4.20;99.90;;;;;;5011166;28;20014;-78
2021/12/11 09:31:20;;;;;;;;;;;8.00;99.90;;;;;;4995146;28;20038;-80
2021/12/11 09:34:11;;;;;;;;;;;4.50;99.90;;;;;;4961182;28;20437;-79
2021/12/11 09:36:57;;;;;;;;;;;4.60;99.90;;;;;;5009955;28;19995;-79
2021/12/11 09:39:56;;;;;;;;;;;4.70;99.90;;;;;;5012334;28;19924;-77
2021/12/11 09:42:39;;;;;;;;;;;3.30;99.90;;;;;;4979338;28;19945;-79
2021/12/11 09:45:17;;;;;;;;;;;2.40;99.90;;;;;;4994312;28;19930;-79
2021/12/11 09:47:53;;;;;;;;;;;4.60;99.90;;;;;;4994743;28;19929;-79
2021/12/11 09:50:23;;;;;;;;;;;4.70;99.90;;;;;;4978026;28;20371;-84
2021/12/11 09:53:18;;;;;;;;;;;4.80;99.90;;;;;;4977276;28;20421;-80
2021/12/11 09:56:10;;;;;;;;;;;4.70;99.90;;;;;;5011319;28;20367;-79
2021/12/11 10:03:15;;;;;;;;;;;4.60;99.90;;;;;;5011721;28;20035;-79
2021/12/11 10:06:15;;;;;;;;;;;5.90;99.90;;;;;;4936500;29;19933;-81
2021/12/11 10:09:17;;;;;;;;;;;3.30;99.90;;;;;;4919248;29;19941;-80
2021/12/11 10:12:11;;;;;;;;;;;5.20;99.90;;;;;;4951314;29;20014;-82
2021/12/11 10:14:39;;;;;;;;;;;5.00;99.90;;;;;;4934552;29;20283;-81
2021/12/11 10:17:09;;;;;;;;;;;7.10;99.90;;;;;;4950645;29;19923;-80
2021/12/11 10:19:35;;;;;;;;;;;7.00;99.90;;;;;;4950942;29;19933;-80
2021/12/11 10:22:05;;;;;;;;;;;8.20;99.90;;;;;;4935169;29;19986;-78
2021/12/11 10:24:51;;;;;;;;;;;7.10;99.90;;;;;;4934654;29;19926;-80
2021/12/11 10:27:39;;;;;;;;;;;5.80;99.90;;;;;;4875501;29;19923;-78
2021/12/11 10:30:44;;;;;;;;;;;4.30;99.90;;;;;;4891344;29;19975;-79
2021/12/11 10:33:41;;;;;;;;;;;6.10;99.90;;;;;;4846784;29;20296;-82
2021/12/11 10:36:14;;;;;;;;;;;5.60;99.90;;;;;;4863243;29;19931;-79
2021/12/11 10:38:50;;;;;;;;;;;5.70;99.90;;;;;;4893146;29;19927;-77
2021/12/11 10:41:16;;;;;;;;;;;8.80;99.90;;;;;;4893831;29;20054;-78
2021/12/11 10:43:53;;;;;;;;;;;6.30;99.90;;;;;;4894166;29;20033;-78
2021/12/11 10:49:15;;;;;;;;;;;6.40;99.90;;;;;;4894745;29;19927;-78
2021/12/11 10:51:51;;;;;;;;;;;6.00;99.90;;;;;;4881403;29;20432;-79
2021/12/11 10:54:18;;;;;;;;;;;5.80;99.90;;;;;;4897526;29;19958;-80
2021/12/11 10:56:50;;;;;;;;;;;6.50;99.90;;;;;;4897989;29;19934;-79
2021/12/11 10:59:21;;;;;;;;;;;7.40;99.90;;;;;;4942672;29;20454;-79
2021/12/11 11:02:12;;;;;;;;;;;6.30;99.90;;;;;;4954184;29;19922;-79
2021/12/11 11:04:44;;;;;;;;;;;7.20;99.90;;;;;;4953812;29;19933;-80
2021/12/11 11:07:10;;;;;;;;;;;3.60;99.90;;;;;;4938294;29;19926;-79
2021/12/11 11:09:36;;;;;;;;;;;5.60;99.90;;;;;;4992337;28;19926;-80
2021/12/11 11:12:04;;;;;;;;;;;8.20;99.90;;;;;;4997495;28;20264;-79
2021/12/11 11:14:30;;;;;;;;;;;6.90;99.90;;;;;;5014924;28;20398;-80
2021/12/11 11:16:57;;;;;;;;;;;7.50;99.90;;;;;;4997946;28;19925;-79
2021/12/11 11:19:43;;;;;;;;;;;8.60;99.90;;;;;;4981273;28;19968;-80
2021/12/11 11:22:19;;;;;;;;;;;7.00;99.90;;;;;;4996512;28;20453;-79
2021/12/11 11:24:55;;;;;;;;;;;9.60;99.90;;;;;;5014255;28;20040;-79
2021/12/11 11:27:20;;;;;;;;;;;6.70;99.90;;;;;;4996585;28;19941;-79
2021/12/11 11:29:49;;;;;;;;;;;9.40;99.90;;;;;;4997146;28;19921;-80
2021/12/11 11:32:17;;;;;;;;;;;6.50;99.90;;;;;;4997519;28;20255;-79
2021/12/11 11:34:48;;;;;;;;;;;7.80;99.90;;;;;;4997607;28;20222;-80
2021/12/11 11:37:18;;;;;;;;;;;6.50;99.90;;;;;;4982013;28;19945;-80
2021/12/11 11:39:44;;;;;;;;;;;8.00;99.90;;;;;;4996720;28;20024;-79
2021/12/11 11:42:12;;;;;;;;;;;9.80;99.90;;;;;;4980920;28;20397;-80
2021/12/11 11:44:41;;;;;;;;;;;6.80;99.90;;;;;;4980466;28;19921;-80
2021/12/11 11:47:09;;;;;;;;;;;7.90;99.90;;;;;;5014344;28;19995;-80
2021/12/11 11:49:38;;;;;;;;;;;7.30;99.90;;;;;;4947502;28;19926;-80
2021/12/11 11:52:28;;;;;;;;;;;9.40;99.90;;;;;;4996689;28;19930;-80
2021/12/11 11:55:00;;;;;;;;;;;7.50;99.90;;;;;;4967081;28;19933;-80
2021/12/11 11:57:35;;;;;;;;;;;10.30;99.90;;;;;;5014277;28;19933;-80
2021/12/11 12:00:03;;;;;;;;;;;7.50;99.90;;;;;;4996616;28;20341;-80
2021/12/11 12:02:32;;;;;;;;;;;8.10;99.90;;;;;;4997075;28;19925;-80
2021/12/11 12:05:04;;;;;;;;;;;10.00;99.90;;;;;;4980641;28;20053;-80
2021/12/11 12:07:32;;;;;;;;;;;7.80;99.90;;;;;;4979734;28;19926;-80
2021/12/11 12:10:01;;;;;;;;;;;8.30;99.90;;;;;;4996815;28;19925;-80
2021/12/11 12:12:27;;;;;;;;;;;7.60;99.90;;;;;;4980333;28;19979;-83
2021/12/11 12:14:54;;;;;;;;;;;10.80;99.90;;;;;;4980672;28;19933;-80
2021/12/11 12:17:21;;;;;;;;;;;7.80;99.90;;;;;;5012930;28;19932;-80
2021/12/11 12:19:53;;;;;;;;;;;9.90;99.90;;;;;;4980937;28;19967;-80
2021/12/11 12:22:20;;;;;;;;;;;10.30;99.90;;;;;;4964150;28;19948;-79
2021/12/11 12:24:47;;;;;;;;;;;10.10;99.90;;;;;;5013499;28;20003;-79
2021/12/11 12:27:17;;;;;;;;;;;7.80;99.90;;;;;;5013973;28;19926;-80
2021/12/11 12:29:45;;;;;;;;;;;11.30;99.90;;;;;;5013379;28;20092;-81
2021/12/11 12:32:13;;;;;;;;;;;8.80;99.90;;;;;;5013936;28;20410;-80
2021/12/11 12:34:39;;;;;;;;;;;10.50;99.90;;;;;;5010844;28;19926;-80
2021/12/11 12:37:14;;;;;;;;;;;10.10;99.90;;;;;;4997399;28;19936;-80
2021/12/11 12:39:43;;;;;;;;;;;9.40;99.90;;;;;;4995897;28;19926;-80
2021/12/11 12:42:18;;;;;;;;;;;10.30;99.90;;;;;;5013763;28;20067;-80
2021/12/11 12:44:46;;;;;;;;;;;7.70;99.90;;;;;;4995871;28;19934;-79
2021/12/11 12:47:31;;;;;;;;;;;10.60;99.90;;;;;;5013447;28;19937;-79
2021/12/11 12:50:01;;;;;;;;;;;7.70;99.90;;;;;;4995510;28;19925;-79
2021/12/11 12:52:45;;;;;;;;;;;11.40;99.90;;;;;;4979883;28;19925;-79
2021/12/11 12:55:36;;;;;;;;;;;7.60;99.90;;;;;;4995511;28;19991;-79
2021/12/11 12:58:33;;;;;;;;;;;7.90;99.90;;;;;;5012901;28;19967;-79
2021/12/11 13:01:02;;;;;;;;;;;9.60;99.90;;;;;;4973618;28;20289;-80
2021/12/11 13:03:34;;;;;;;;;;;7.60;99.90;;;;;;4997643;28;19980;-81
2021/12/11 13:06:18;;;;;;;;;;;7.80;99.90;;;;;;5013749;28;19979;-79
2021/12/11 13:08:55;;;;;;;;;;;7.60;99.90;;;;;;5011086;28;19925;-81
2021/12/11 13:11:23;;;;;;;;;;;7.60;99.90;;;;;;4995350;28;19925;-78
2021/12/11 13:13:49;;;;;;;;;;;9.70;99.90;;;;;;4978690;28;20333;-78
2021/12/11 13:16:17;;;;;;;;;;;9.30;99.90;;;;;;5010713;28;19941;-79
2021/12/11 13:18:47;;;;;;;;;;;9.00;99.90;;;;;;5012301;28;19965;-79
2021/12/11 13:21:13;;;;;;;;;;;7.30;99.90;;;;;;5012474;28;19972;-79
2021/12/11 13:23:40;;;;;;;;;;;9.30;99.90;;;;;;4994908;28;19925;-79
2021/12/11 13:26:07;;;;;;;;;;;10.10;99.90;;;;;;5012072;28;19926;-79
2021/12/11 13:28:35;;;;;;;;;;;8.50;99.90;;;;;;4962304;28;19925;-80
2021/12/11 13:31:04;;;;;;;;;;;7.00;99.90;;;;;;4994759;28;20020;-79
2021/12/11 13:33:32;;;;;;;;;;;8.70;99.90;;;;;;5012393;28;19976;-79
2021/12/11 13:35:59;;;;;;;;;;;7.00;99.90;;;;;;4978160;28;19926;-80
2021/12/11 13:38:26;;;;;;;;;;;4.40;99.90;;;;;;4995048;28;19929;-79
2021/12/11 13:40:54;;;;;;;;;;;6.80;99.90;;;;;;4977943;28;20390;-79
2021/12/11 13:43:28;;;;;;;;;;;6.90;99.90;;;;;;5010726;28;20024;-80
2021/12/11 13:46:15;;;;;;;;;;;6.80;99.90;;;;;;4996944;28;19975;-79
2021/12/11 13:49:18;;;;;;;;;;;8.80;99.90;;;;;;5010765;28;19925;-78
2021/12/11 13:52:00;;;;;;;;;;;6.90;99.90;;;;;;5010507;28;19926;-78
2021/12/11 13:54:45;;;;;;;;;;;6.80;99.90;;;;;;5011038;28;19976;-81
2021/12/11 13:57:16;;;;;;;;;;;6.90;99.90;;;;;;4994414;28;19932;-78
2021/12/11 13:59:42;;;;;;;;;;;6.80;99.90;;;;;;5010957;28;20503;-78
2021/12/11 14:02:08;;;;;;;;;;;9.90;99.90;;;;;;5011889;28;19950;-78
2021/12/11 14:04:36;;;;;;;;;;;7.60;99.90;;;;;;5011263;28;20001;-79
2021/12/11 14:07:11;;;;;;;;;;;7.00;99.90;;;;;;5011711;28;19925;-78
2021/12/11 14:09:49;;;;;;;;;;;7.00;99.90;;;;;;4994103;28;20012;-82
2021/12/11 14:12:15;;;;;;;;;;;6.90;99.90;;;;;;4994199;28;19979;-81
2021/12/11 14:14:41;;;;;;;;;;;8.20;99.90;;;;;;5011388;28;20287;-77
2021/12/11 14:17:11;;;;;;;;;;;6.80;99.90;;;;;;5011717;28;19929;-78
2021/12/11 14:20:24;;;;;;;;;;;6.80;99.90;;;;;;5010781;28;20385;-80
2021/12/11 14:23:26;;;;;;;;;;;7.10;99.90;;;;;;4954266;28;19926;-78
2021/12/11 14:26:37;;;;;;;;;;;7.40;99.90;;;;;;4900734;29;20379;-78
2021/12/11 14:32:39;;;;;;;;;;;7.10;99.90;;;;;;4901426;29;19927;-78
2021/12/11 14:39:09;;;;;;;;;;;7.00;99.90;;;;;;4840367;29;19990;-80
2021/12/11 14:45:42;;;;;;;;;;;7.00;99.90;;;;;;4856516;29;19932;-79
2021/12/11 14:48:47;;;;;;;;;;;7.40;99.90;;;;;;4816210;29;19981;-81
2021/12/11 14:51:43;;;;;;;;;;;6.80;99.90;;;;;;4834248;29;20518;-78
2021/12/11 14:54:10;;;;;;;;;;;7.00;99.90;;;;;;4822786;29;20135;-80
2021/12/11 14:56:38;;;;;;;;;;;7.40;99.90;;;;;;4838004;29;20437;-80
2021/12/11 14:59:42;;;;;;;;;;;10.10;99.90;;;;;;4837790;29;19925;-80
2021/12/11 15:02:41;;;;;;;;;;;7.70;99.90;;;;;;4835075;29;19933;-80
2021/12/11 15:05:40;;;;;;;;;;;7.30;99.90;;;;;;4783110;30;20378;-79
2021/12/11 15:08:08;;;;;;;;;;;7.00;99.90;;;;;;4784538;29;20246;-79
2021/12/11 15:10:37;;;;;;;;;;;8.50;99.90;;;;;;4805425;29;19929;-80
2021/12/11 15:13:02;;;;;;;;;;;8.40;99.90;;;;;;4819882;29;19936;-81
2021/12/11 15:15:31;;;;;;;;;;;8.90;99.90;;;;;;4819911;29;19929;-80
2021/12/11 15:17:58;;;;;;;;;;;5.10;99.90;;;;;;4819190;29;19936;-80
2021/12/11 15:20:35;;;;;;;;;;;7.20;99.90;;;;;;4852252;29;20321;-79
2021/12/11 15:23:05;;;;;;;;;;;6.90;99.90;;;;;;4856032;29;20485;-81
2021/12/11 15:25:40;;;;;;;;;;;5.20;99.90;;;;;;4857333;29;20012;-80
2021/12/11 15:28:11;;;;;;;;;;;6.90;99.90;;;;;;4859658;29;20051;-80
2021/12/11 15:30:39;;;;;;;;;;;6.80;99.90;;;;;;4874750;29;20021;-80
2021/12/11 15:33:05;;;;;;;;;;;9.10;99.90;;;;;;4858651;29;19931;-81
2021/12/11 15:35:37;;;;;;;;;;;8.70;99.90;;;;;;4893683;29;19927;-81
2021/12/11 15:38:30;;;;;;;;;;;7.40;99.90;;;;;;4884742;29;20416;-81
2021/12/11 15:41:04;;;;;;;;;;;7.00;99.90;;;;;;4917937;29;19931;-80
2021/12/11 15:43:32;;;;;;;;;;;7.00;99.90;;;;;;4934412;29;19982;-81
2021/12/11 15:46:07;;;;;;;;;;;7.60;99.90;;;;;;4983174;28;20358;-81
2021/12/11 15:48:42;;;;;;;;;;;6.70;99.90;;;;;;4980734;28;20031;-80
2021/12/11 15:51:09;;;;;;;;;;;7.70;99.90;;;;;;4996108;28;19922;-80
2021/12/11 15:53:43;;;;;;;;;;;8.40;99.90;;;;;;5013429;28;19932;-81
2021/12/11 15:56:09;;;;;;;;;;;6.60;99.90;;;;;;4978985;28;20485;-80
2021/12/11 15:58:44;;;;;;;;;;;9.30;99.90;;;;;;4997151;28;19933;-80
2021/12/11 16:01:23;;;;;;;;;;;9.80;99.90;;;;;;4996528;28;20510;-80
2021/12/11 16:03:49;;;;;;;;;;;6.50;99.90;;;;;;4980977;28;20374;-81
2021/12/11 16:06:21;;;;;;;;;;;10.20;99.90;;;;;;4979565;28;19976;-80
2021/12/11 16:09:05;;;;;;;;;;;6.40;99.90;;;;;;4997189;28;19965;-80
2021/12/11 16:11:46;;;;;;;;;;;8.60;99.90;;;;;;4997580;28;19932;-80
2021/12/11 16:18:11;;;;;;;;;;;6.40;99.90;;;;;;5011876;28;19991;-81
2021/12/11 16:20:46;;;;;;;;;;;6.70;99.90;;;;;;4952610;29;20034;-79
2021/12/11 16:23:59;;;;;;;;;;;8.00;99.90;;;;;;4953559;29;19921;-79
2021/12/11 16:26:27;;;;;;;;;;;9.50;99.90;;;;;;4953124;29;20344;-80
2021/12/11 16:29:03;;;;;;;;;;;7.00;99.90;;;;;;4952239;29;19926;-80
2021/12/11 16:31:30;;;;;;;;;;;5.90;99.90;;;;;;4936673;29;19956;-78
2021/12/11 16:33:55;;;;;;;;;;;8.70;99.90;;;;;;4951438;29;19930;-83
2021/12/11 16:36:21;;;;;;;;;;;8.60;99.90;;;;;;4936880;29;19993;-80
2021/12/11 16:38:46;;;;;;;;;;;9.40;99.90;;;;;;4952908;29;19949;-79
2021/12/11 16:41:18;;;;;;;;;;;5.80;99.90;;;;;;4936302;29;20014;-80
2021/12/11 16:43:45;;;;;;;;;;;5.80;99.90;;;;;;4935942;29;19934;-79
2021/12/11 16:46:12;;;;;;;;;;;5.70;99.90;;;;;;4934587;29;20244;-79
2021/12/11 16:48:38;;;;;;;;;;;9.40;99.90;;;;;;4951876;29;19927;-80
2021/12/11 16:51:07;;;;;;;;;;;9.00;99.90;;;;;;4966081;28;19929;-79
2021/12/11 16:53:34;;;;;;;;;;;6.40;99.90;;;;;;5013269;28;20351;-80
2021/12/11 16:56:01;;;;;;;;;;;8.40;99.90;;;;;;5012543;28;19984;-82
2021/12/11 16:58:30;;;;;;;;;;;5.60;99.90;;;;;;4978644;28;20377;-80
2021/12/11 17:00:57;;;;;;;;;;;7.20;99.90;;;;;;4995753;28;19926;-85
2021/12/11 17:03:23;;;;;;;;;;;6.00;99.90;;;;;;5012835;28;19925;-79
2021/12/11 17:05:49;;;;;;;;;;;6.80;99.90;;;;;;5011587;28;19937;-80
2021/12/11 17:08:15;;;;;;;;;;;5.90;99.90;;;;;;4994828;28;20370;-79
2021/12/11 17:10:45;;;;;;;;;;;7.80;99.90;;;;;;5012892;28;20028;-79
2021/12/11 17:13:14;;;;;;;;;;;6.50;99.90;;;;;;4995234;28;20057;-80
2021/12/11 17:15:40;;;;;;;;;;;7.30;99.90;;;;;;5011699;28;20032;-81
2021/12/11 17:18:07;;;;;;;;;;;7.90;99.90;;;;;;5009966;28;19968;-80
2021/12/11 17:20:33;;;;;;;;;;;5.90;99.90;;;;;;4992470;28;19933;-80
2021/12/11 17:22:59;;;;;;;;;;;5.90;99.90;;;;;;4978424;28;20358;-84
2021/12/11 17:25:36;;;;;;;;;;;6.60;99.90;;;;;;5011749;28;20033;-81
2021/12/11 17:28:05;;;;;;;;;;;5.80;99.90;;;;;;4996274;28;19981;-83
2021/12/11 17:30:31;;;;;;;;;;;5.80;99.90;;;;;;5013390;28;19925;-81
2021/12/11 17:32:58;;;;;;;;;;;5.80;99.90;;;;;;5011397;28;20358;-80
2021/12/11 17:35:24;;;;;;;;;;;6.00;99.90;;;;;;5011434;28;19926;-80
2021/12/11 17:37:50;;;;;;;;;;;7.40;99.90;;;;;;5012485;28;20282;-80
2021/12/11 17:40:19;;;;;;;;;;;6.90;99.90;;;;;;5010906;28;19925;-80
2021/12/11 17:42:45;;;;;;;;;;;6.70;99.90;;;;;;5012500;28;19925;-81
2021/12/11 17:45:11;;;;;;;;;;;6.80;99.90;;;;;;4978094;28;20425;-82
2021/12/11 17:47:40;;;;;;;;;;;5.90;99.90;;;;;;4978311;28;19925;-80
2021/12/11 17:50:07;;;;;;;;;;;6.20;99.90;;;;;;4994127;28;19925;-80
2021/12/11 17:52:36;;;;;;;;;;;6.00;99.90;;;;;;4994173;28;20341;-79
2021/12/11 17:55:09;;;;;;;;;;;6.10;99.90;;;;;;4975045;28;20409;-85
2021/12/11 17:57:34;;;;;;;;;;;5.70;99.90;;;;;;5011776;28;20039;-80
2021/12/11 18:00:01;;;;;;;;;;;7.10;99.90;;;;;;4978084;28;20433;-79
2021/12/11 18:02:27;;;;;;;;;;;9.10;99.90;;;;;;4993791;28;20023;-80
2021/12/11 18:04:56;;;;;;;;;;;7.50;99.90;;;;;;4993466;28;20016;-79
2021/12/11 18:07:21;;;;;;;;;;;6.20;99.90;;;;;;4994476;28;19999;-80
2021/12/11 18:09:47;;;;;;;;;;;6.30;99.90;;;;;;5012213;28;20002;-80
2021/12/11 18:12:16;;;;;;;;;;;8.70;99.90;;;;;;4994085;28;19976;-81